createdAt,value
2023-02-23T00:05:48.586Z,91.1
2023-02-23T00:20:57.482Z,91.1
2023-02-23T00:36:06.892Z,91.1
2023-02-23T00:51:17.442Z,91.1
2023-02-23T01:06:27.370Z,90.8
2023-02-23T01:21:36.902Z,90.5
2023-02-23T01:36:46.191Z,90.1
2023-02-23T01:51:55.285Z,90
2023-02-23T02:07:04.951Z,90
2023-02-23T02:22:14.420Z,90.1
2023-02-23T02:37:24.396Z,90.2
2023-02-23T02:52:33.941Z,90.3
2023-02-23T03:07:44.056Z,90.3
2023-02-23T03:22:54.112Z,90
2023-02-23T03:38:03.768Z,89.8
2023-02-23T03:53:13.881Z,90.1
2023-02-23T04:08:24.419Z,89.4
2023-02-23T04:23:33.711Z,90
2023-02-23T04:38:43.313Z,90.6
2023-02-23T04:53:53.226Z,90.3
2023-02-23T05:09:02.307Z,90.6
2023-02-23T05:24:11.824Z,90.5
2023-02-23T05:39:22.545Z,90.5
2023-02-23T05:54:32.404Z,90.5
2023-02-23T06:09:45.182Z,90.8
2023-02-23T06:24:55.682Z,90.4
2023-02-23T06:40:05.471Z,90.3
2023-02-23T06:55:15.255Z,90
2023-02-23T07:10:24.924Z,90.9
2023-02-23T07:25:35.021Z,90.4
2023-02-23T07:40:45.005Z,90.4
2023-02-23T07:55:54.803Z,90.7
2023-02-23T08:11:04.384Z,90.7
2023-02-23T08:26:14.830Z,90.5
2023-02-23T08:41:24.312Z,90.6
2023-02-23T08:56:33.139Z,90.8
2023-02-23T09:11:42.852Z,90.7
2023-02-23T09:26:52.992Z,90.8
2023-02-23T09:42:03.012Z,90.8
2023-02-23T09:57:12.227Z,90.8
2023-02-23T10:12:22.061Z,90.9
2023-02-23T10:27:31.730Z,91.2
2023-02-23T10:42:41.683Z,91.3
2023-02-23T10:57:51.168Z,91.1
2023-02-23T11:13:01.186Z,90.6
2023-02-23T11:28:11.272Z,90.8
2023-02-23T11:43:21.518Z,90.9
2023-02-23T11:58:31.448Z,90.9
2023-02-23T12:17:28.921Z,89.3
2023-02-23T12:32:41.089Z,92.4
2023-02-23T12:47:50.797Z,92.2
2023-02-23T13:03:00.626Z,92.2
2023-02-23T13:18:10.724Z,92.1
2023-02-23T13:33:24.076Z,91.9
2023-02-23T13:48:58.926Z,92
2023-02-23T14:04:08.738Z,92
2023-02-23T14:19:19.456Z,92.1
2023-02-23T14:34:29.058Z,92.2
2023-02-23T14:49:38.635Z,91.9
2023-02-23T15:04:48.189Z,92.2
2023-02-23T15:20:17.500Z,92.1
2023-02-23T15:35:27.392Z,92.3
2023-02-23T15:50:38.010Z,92.3
2023-02-23T16:05:48.615Z,92.4
2023-02-23T16:20:58.506Z,92.5
2023-02-23T16:36:08.171Z,92.7
2023-02-23T16:51:21.248Z,92.4
2023-02-23T17:06:30.842Z,92.7
2023-02-23T17:21:41.076Z,93
2023-02-23T17:36:50.630Z,93
2023-02-23T17:52:00.626Z,92.9
2023-02-23T18:07:10.102Z,92.9
2023-02-23T18:22:20.257Z,92.4
2023-02-23T18:37:30.427Z,92.9
2023-02-23T18:52:40.585Z,93.1
2023-02-23T19:07:50.201Z,92.8
2023-02-23T19:23:00.006Z,93
2023-02-23T19:38:09.482Z,93.2
2023-02-23T19:53:20.171Z,93.3
2023-02-23T20:08:29.743Z,93.4
2023-02-23T20:23:39.649Z,93.4
2023-02-23T20:38:49.281Z,93.5
2023-02-23T20:53:59.550Z,93.3
2023-02-23T21:09:09.448Z,93.3
2023-02-23T21:24:20.267Z,93.2
2023-02-23T21:39:29.693Z,93.3
2023-02-23T21:54:38.993Z,93.2
2023-02-23T22:09:48.994Z,92.9
2023-02-23T22:24:58.371Z,93
2023-02-23T22:40:08.332Z,93.2
2023-02-23T22:55:17.649Z,93.1
2023-02-23T23:10:28.396Z,92.8
2023-02-23T23:25:38.353Z,92.7
2023-02-23T23:40:47.984Z,92.8
2023-02-23T23:55:57.514Z,92.7
